Ward, Arkansas
Current Conditions -  °F | °C
As of 1:58 AM on Friday 19 Dec 2014 (Local Time) from KLRF Reporting Station
Overcast Overcast  
Wind Chill: 38°   Ceiling: 600
Heat Index: 41°   Visibility: 10mi
Dew Point: 39°   Wind: 5mph
Humidity: 93%   Direction: 50°NE
Pressure: 30.21"   Gusts: NA
Location:  35.03°N, 91.95°W
Report Text: KLRF 190758Z AUTO 05004KT 10SM OVC006 05/04 A3021 RMK AO2 SLP235 T00490039
Loading
Personal Weather Stations






























Interactive Weather Map New forecast layout! Learn more

10-Day Weather Forecast

Advertisements
Track Severe Weather on mobile